Time;durP1;ratioP1;P1;durP2;ratioP2;P2;SDS_P1;SDS_P2;PMS_P1;PMS_P2;Temp;Humidity;BMP_temperature;BMP_pressure;BME280_temperature;BME280_humidity;BME280_pressure;Samples;Min_cycle;Max_cycle;Signal;HPM_P1;HPM_P2
2021/07/03 00:01:03;;;;;;;17.65;6.85;;;;;;;;;;5052133;28;20041;-76
2021/07/03 00:04:07;;;;;;;20.75;6.53;;;;;;;;;;5052128;28;20033;-76
2021/07/03 00:07:12;;;;;;;17.35;7.55;;;;;;;;;;5051925;28;20049;-76
2021/07/03 00:10:17;;;;;;;21.10;6.80;;;;;;;;;;5051284;28;20037;-76
2021/07/03 00:13:21;;;;;;;19.33;7.63;;;;;;;;;;5052045;28;20132;-76
2021/07/03 00:16:25;;;;;;;16.73;6.97;;;;;;;;;;5051167;28;20036;-76
2021/07/03 00:19:30;;;;;;;14.95;5.90;;;;;;;;;;5039903;28;20495;-76
2021/07/03 00:22:34;;;;;;;16.25;6.43;;;;;;;;;;5051807;28;20029;-76
2021/07/03 00:25:39;;;;;;;19.63;6.88;;;;;;;;;;5051572;28;20045;-76
2021/07/03 00:28:43;;;;;;;18.58;6.47;;;;;;;;;;5051702;28;20029;-76
2021/07/03 00:31:47;;;;;;;15.02;6.80;;;;;;;;;;5050638;28;20033;-76
2021/07/03 00:34:52;;;;;;;22.05;6.50;;;;;;;;;;5050853;28;20036;-76
2021/07/03 00:37:56;;;;;;;16.23;6.75;;;;;;;;;;5051741;28;20037;-76
2021/07/03 00:41:01;;;;;;;17.98;6.20;;;;;;;;;;5050537;28;20037;-76
2021/07/03 00:44:07;;;;;;;16.67;5.40;;;;;;;;;;5051146;28;20053;-76
2021/07/03 00:47:12;;;;;;;21.35;6.45;;;;;;;;;;5050296;28;20053;-76
2021/07/03 00:50:20;;;;;;;15.85;5.63;;;;;;;;;;5051191;28;20049;-76
2021/07/03 00:53:25;;;;;;;13.45;4.82;;;;;;;;;;5050346;28;20453;-76
2021/07/03 00:56:29;;;;;;;17.58;6.13;;;;;;;;;;5050315;28;20037;-76
2021/07/03 00:59:43;;;;;;;11.32;5.35;;;;;;;;;;5049891;28;20040;-76
2021/07/03 01:02:51;;;;;;;15.07;5.35;;;;;;;;;;5038652;28;20033;-76
2021/07/03 01:05:55;;;;;;;19.25;5.50;;;;;;;;;;5050077;28;20045;-76
2021/07/03 01:09:02;;;;;;;10.10;5.22;;;;;;;;;;5050110;28;20060;-76
2021/07/03 01:12:08;;;;;;;14.10;5.50;;;;;;;;;;5050886;28;20366;-76
2021/07/03 01:15:13;;;;;;;11.68;5.13;;;;;;;;;;5050392;28;20041;-76
2021/07/03 01:18:17;;;;;;;12.25;5.15;;;;;;;;;;5050761;28;20037;-76
2021/07/03 01:21:24;;;;;;;13.10;5.53;;;;;;;;;;5050665;28;20037;-76
2021/07/03 01:24:30;;;;;;;10.10;4.72;;;;;;;;;;5049786;28;20037;-76
2021/07/03 01:27:35;;;;;;;14.52;5.60;;;;;;;;;;5038209;28;20041;-76
2021/07/03 01:30:41;;;;;;;13.95;5.47;;;;;;;;;;5049575;28;20032;-76
2021/07/03 01:33:46;;;;;;;13.25;5.82;;;;;;;;;;5038489;28;20045;-76
2021/07/03 01:36:50;;;;;;;11.93;5.65;;;;;;;;;;5050876;28;20041;-76
2021/07/03 01:39:55;;;;;;;11.20;5.50;;;;;;;;;;5051045;28;20406;-76
2021/07/03 01:42:59;;;;;;;14.52;5.65;;;;;;;;;;5049588;28;20041;-76
2021/07/03 01:46:05;;;;;;;12.52;5.25;;;;;;;;;;5049473;28;20053;-76
2021/07/03 01:49:13;;;;;;;12.85;5.78;;;;;;;;;;5038116;28;20033;-76
2021/07/03 01:52:24;;;;;;;19.05;6.22;;;;;;;;;;5050304;28;20036;-76
2021/07/03 01:55:35;;;;;;;12.07;5.20;;;;;;;;;;5049964;28;20045;-76
2021/07/03 01:58:40;;;;;;;12.57;5.15;;;;;;;;;;5049513;28;20041;-76
2021/07/03 02:02:01;;;;;;;12.50;5.30;;;;;;;;;;5049297;28;20045;-76
2021/07/03 02:05:08;;;;;;;13.90;5.20;;;;;;;;;;5049564;28;20373;-76
2021/07/03 02:08:13;;;;;;;12.07;5.28;;;;;;;;;;5050498;28;20484;-76
2021/07/03 02:11:18;;;;;;;10.48;4.95;;;;;;;;;;5050214;28;20033;-76
2021/07/03 02:14:28;;;;;;;8.80;4.55;;;;;;;;;;5049535;28;20473;-76
2021/07/03 02:17:47;;;;;;;14.98;5.10;;;;;;;;;;5049490;28;20381;-76
2021/07/03 02:20:55;;;;;;;12.95;4.55;;;;;;;;;;5049087;28;20548;-76
2021/07/03 02:24:04;;;;;;;10.15;4.50;;;;;;;;;;5037979;28;20037;-76
2021/07/03 02:27:09;;;;;;;12.52;5.43;;;;;;;;;;5051082;28;20045;-76
2021/07/03 02:30:15;;;;;;;15.32;5.20;;;;;;;;;;5054016;28;20433;-76
2021/07/03 02:33:22;;;;;;;12.50;5.00;;;;;;;;;;5041777;28;20041;-77
2021/07/03 02:36:30;;;;;;;15.18;5.15;;;;;;;;;;5042247;28;20033;-76
2021/07/03 02:39:36;;;;;;;12.93;5.18;;;;;;;;;;5053587;28;20033;-76
2021/07/03 02:42:41;;;;;;;9.07;4.85;;;;;;;;;;5041535;28;20381;-76
2021/07/03 02:45:46;;;;;;;9.00;5.05;;;;;;;;;;5053752;28;20049;-76
2021/07/03 02:48:50;;;;;;;11.13;4.80;;;;;;;;;;5053648;28;20037;-77
2021/07/03 02:51:56;;;;;;;13.48;4.50;;;;;;;;;;5053464;28;20032;-76
2021/07/03 02:55:01;;;;;;;10.55;4.38;;;;;;;;;;5041512;28;20045;-76
2021/07/03 02:58:06;;;;;;;10.48;4.53;;;;;;;;;;5052616;28;20492;-76
2021/07/03 03:01:10;;;;;;;10.18;4.20;;;;;;;;;;5040947;28;20036;-76
2021/07/03 03:04:15;;;;;;;9.80;4.47;;;;;;;;;;5052397;28;20041;-76
2021/07/03 03:07:20;;;;;;;14.05;4.70;;;;;;;;;;5052643;28;20057;-76
2021/07/03 03:10:25;;;;;;;12.98;5.38;;;;;;;;;;5053603;28;20045;-76
2021/07/03 03:13:29;;;;;;;18.35;5.95;;;;;;;;;;5052556;28;20370;-76
2021/07/03 03:16:35;;;;;;;13.35;5.85;;;;;;;;;;5053030;28;20037;-76
2021/07/03 03:19:43;;;;;;;18.83;6.05;;;;;;;;;;5053067;28;20041;-76
2021/07/03 03:22:49;;;;;;;13.85;6.28;;;;;;;;;;5052261;28;20040;-76
2021/07/03 03:25:56;;;;;;;10.23;6.45;;;;;;;;;;5053063;28;20041;-76
2021/07/03 03:29:03;;;;;;;15.00;6.15;;;;;;;;;;5051917;28;20041;-76
2021/07/03 03:32:08;;;;;;;14.27;5.60;;;;;;;;;;5052935;28;20037;-76
2021/07/03 03:35:14;;;;;;;18.10;7.03;;;;;;;;;;5040420;28;20037;-77
2021/07/03 03:38:20;;;;;;;16.80;6.32;;;;;;;;;;5051733;28;20528;-76
2021/07/03 03:41:24;;;;;;;18.15;5.65;;;;;;;;;;5051432;28;20064;-76
2021/07/03 03:44:29;;;;;;;16.77;5.95;;;;;;;;;;5039964;28;20634;-76
2021/07/03 03:47:33;;;;;;;13.35;6.88;;;;;;;;;;5051581;28;20382;-76
2021/07/03 03:50:38;;;;;;;19.75;7.28;;;;;;;;;;5051813;28;20037;-76
2021/07/03 03:53:44;;;;;;;18.27;7.20;;;;;;;;;;5052672;28;20033;-76
2021/07/03 03:57:21;;;;;;;15.02;7.35;;;;;;;;;;5051540;28;20037;-76
2021/07/03 04:00:14;;;;;;;15.50;7.32;;;;;;;;;;5051310;28;20397;-76
2021/07/03 04:03:21;;;;;;;17.95;10.48;;;;;;;;;;5052493;28;20049;-76
2021/07/03 04:06:26;;;;;;;21.80;11.13;;;;;;;;;;5051504;28;20064;-76
2021/07/03 04:09:30;;;;;;;26.48;15.10;;;;;;;;;;5051409;28;20510;-77
2021/07/03 04:12:35;;;;;;;33.05;19.33;;;;;;;;;;5052630;28;20056;-76
2021/07/03 04:19:59;;;;;;;49.78;25.40;;;;;;;;;;5055633;28;20499;-76
2021/07/03 04:23:03;;;;;;;82.50;42.80;;;;;;;;;;5051894;28;20392;-76
2021/07/03 04:26:07;;;;;;;57.25;29.02;;;;;;;;;;5028479;28;20053;-76
2021/07/03 04:29:11;;;;;;;40.35;22.30;;;;;;;;;;5051761;28;20424;-76
2021/07/03 04:32:16;;;;;;;35.95;18.88;;;;;;;;;;5051735;28;20048;-76
2021/07/03 04:35:21;;;;;;;34.33;16.88;;;;;;;;;;5050650;28;20503;-76
2021/07/03 04:38:25;;;;;;;43.05;18.98;;;;;;;;;;5050567;28;20040;-76
2021/07/03 04:41:30;;;;;;;36.95;17.88;;;;;;;;;;5038945;28;20048;-76
2021/07/03 04:44:34;;;;;;;23.15;12.45;;;;;;;;;;5050298;28;20124;-76
2021/07/03 04:47:38;;;;;;;23.48;10.85;;;;;;;;;;5051318;28;20060;-76
2021/07/03 04:50:43;;;;;;;28.85;9.38;;;;;;;;;;5049745;28;20044;-76
2021/07/03 04:53:47;;;;;;;30.67;8.52;;;;;;;;;;5051151;28;20037;-76
2021/07/03 04:56:51;;;;;;;25.13;8.70;;;;;;;;;;5051034;28;20033;-76
2021/07/03 04:59:56;;;;;;;32.95;8.70;;;;;;;;;;5049968;28;20381;-76
2021/07/03 05:03:01;;;;;;;23.50;8.48;;;;;;;;;;5051186;28;20086;-76
2021/07/03 05:06:05;;;;;;;29.48;9.25;;;;;;;;;;5050152;28;20045;-76
2021/07/03 05:09:09;;;;;;;21.48;7.47;;;;;;;;;;5050951;28;20148;-76
2021/07/03 05:12:14;;;;;;;19.83;6.43;;;;;;;;;;5050974;28;20469;-76
2021/07/03 05:15:18;;;;;;;20.38;7.85;;;;;;;;;;5051031;28;20036;-76
2021/07/03 05:18:23;;;;;;;21.25;7.13;;;;;;;;;;5050758;28;20033;-76
2021/07/03 05:21:27;;;;;;;23.63;8.98;;;;;;;;;;5050615;28;20041;-76
2021/07/03 05:24:31;;;;;;;34.70;10.50;;;;;;;;;;5050698;28;20587;-76
2021/07/03 05:27:36;;;;;;;27.88;11.52;;;;;;;;;;5050458;28;20064;-76
2021/07/03 05:30:41;;;;;;;26.33;9.82;;;;;;;;;;5050816;28;20504;-76
2021/07/03 05:33:45;;;;;;;26.70;9.52;;;;;;;;;;5049686;28;20481;-76
2021/07/03 05:36:50;;;;;;;34.83;9.57;;;;;;;;;;5050550;28;20029;-76
2021/07/03 05:39:54;;;;;;;33.40;9.68;;;;;;;;;;5050265;28;20045;-76
2021/07/03 05:42:58;;;;;;;24.60;9.85;;;;;;;;;;5049669;28;20041;-76
2021/07/03 05:46:04;;;;;;;27.83;9.88;;;;;;;;;;5049602;28;20049;-76
2021/07/03 05:49:08;;;;;;;20.50;9.52;;;;;;;;;;5050340;28;20041;-76
2021/07/03 05:52:13;;;;;;;21.92;8.50;;;;;;;;;;5050242;28;20121;-76
2021/07/03 05:55:17;;;;;;;24.75;10.25;;;;;;;;;;5050418;28;20041;-76
2021/07/03 05:58:21;;;;;;;23.50;8.05;;;;;;;;;;5049378;28;20040;-76
2021/07/03 06:01:25;;;;;;;28.67;8.50;;;;;;;;;;5052434;28;20033;-75
2021/07/03 06:04:30;;;;;;;32.17;8.82;;;;;;;;;;5053641;28;20033;-76
2021/07/03 06:07:34;;;;;;;25.83;8.80;;;;;;;;;;5054067;28;20212;-76
2021/07/03 06:10:39;;;;;;;24.23;7.13;;;;;;;;;;5053229;28;20033;-76
2021/07/03 06:13:44;;;;;;;19.08;6.57;;;;;;;;;;5054469;28;20457;-76
2021/07/03 06:16:48;;;;;;;29.02;6.05;;;;;;;;;;5054060;28;20033;-76
2021/07/03 06:19:52;;;;;;;26.48;7.50;;;;;;;;;;5054225;28;20492;-76
2021/07/03 06:22:57;;;;;;;27.33;7.53;;;;;;;;;;5053672;28;20025;-76
2021/07/03 06:26:03;;;;;;;19.48;4.63;;;;;;;;;;5053734;28;20045;-76
2021/07/03 06:29:07;;;;;;;14.07;5.55;;;;;;;;;;5053158;28;20041;-77
2021/07/03 06:32:12;;;;;;;17.67;4.93;;;;;;;;;;5054211;28;20041;-75
2021/07/03 06:35:16;;;;;;;17.60;5.10;;;;;;;;;;5053687;28;20036;-78
2021/07/03 06:38:20;;;;;;;17.15;5.10;;;;;;;;;;5053942;28;20044;-78
2021/07/03 06:41:25;;;;;;;12.77;4.47;;;;;;;;;;5053975;28;20477;-79
2021/07/03 06:44:29;;;;;;;12.20;5.03;;;;;;;;;;5053578;28;20392;-78
2021/07/03 06:47:33;;;;;;;16.20;4.97;;;;;;;;;;5053991;28;20049;-78
2021/07/03 06:50:38;;;;;;;11.68;4.78;;;;;;;;;;5053921;28;20456;-79
2021/07/03 06:53:42;;;;;;;14.07;4.45;;;;;;;;;;5053558;28;20644;-79
2021/07/03 06:56:46;;;;;;;14.35;4.47;;;;;;;;;;5052427;28;20437;-79
2021/07/03 06:59:51;;;;;;;16.65;4.57;;;;;;;;;;5052652;28;20381;-79
2021/07/03 07:02:55;;;;;;;141.60;11.13;;;;;;;;;;5056404;28;20041;-77
2021/07/03 07:05:59;;;;;;;17.42;4.65;;;;;;;;;;5054745;28;20040;-79
2021/07/03 07:09:04;;;;;;;17.08;4.07;;;;;;;;;;5053723;28;20037;-78
2021/07/03 07:12:09;;;;;;;15.90;3.75;;;;;;;;;;5052825;28;20044;-77
2021/07/03 07:15:13;;;;;;;17.42;3.92;;;;;;;;;;5053647;28;20052;-77
2021/07/03 07:18:17;;;;;;;23.55;4.93;;;;;;;;;;5053611;28;20374;-77
2021/07/03 07:21:22;;;;;;;12.10;4.47;;;;;;;;;;5053502;28;20041;-77
2021/07/03 07:24:26;;;;;;;19.13;4.53;;;;;;;;;;5053430;28;20045;-76
2021/07/03 07:27:31;;;;;;;28.17;4.28;;;;;;;;;;5052981;28;20052;-76
2021/07/03 07:30:35;;;;;;;21.58;4.22;;;;;;;;;;5053050;28;20370;-77
2021/07/03 07:33:39;;;;;;;14.98;4.22;;;;;;;;;;5053071;28;20041;-78
2021/07/03 07:36:44;;;;;;;13.73;4.18;;;;;;;;;;5054448;28;20040;-75
2021/07/03 07:39:48;;;;;;;16.27;3.83;;;;;;;;;;5053451;28;20037;-75
2021/07/03 07:42:53;;;;;;;14.85;4.43;;;;;;;;;;5052248;28;20037;-81
2021/07/03 07:45:57;;;;;;;15.15;3.90;;;;;;;;;;5053107;28;20373;-74
2021/07/03 07:49:03;;;;;;;13.25;4.25;;;;;;;;;;5052714;28;20049;-74
2021/07/03 07:52:07;;;;;;;15.15;4.20;;;;;;;;;;5053110;28;20029;-76
2021/07/03 07:55:12;;;;;;;27.83;4.40;;;;;;;;;;5054421;28;20037;-79
2021/07/03 07:58:17;;;;;;;9.82;4.25;;;;;;;;;;5054100;28;20033;-75
2021/07/03 08:01:23;;;;;;;18.58;4.57;;;;;;;;;;5053540;28;20041;-77
2021/07/03 08:04:27;;;;;;;15.30;4.20;;;;;;;;;;5054523;28;20469;-78
2021/07/03 08:07:31;;;;;;;16.17;4.43;;;;;;;;;;5054294;28;20393;-76
2021/07/03 08:10:36;;;;;;;13.38;4.03;;;;;;;;;;5052956;28;20037;-75
2021/07/03 08:13:41;;;;;;;16.13;4.78;;;;;;;;;;5052394;28;20045;-76
2021/07/03 08:16:46;;;;;;;17.27;4.15;;;;;;;;;;5052529;28;20033;-75
2021/07/03 08:19:50;;;;;;;19.10;4.57;;;;;;;;;;5053835;28;20037;-75
2021/07/03 08:22:55;;;;;;;11.48;3.85;;;;;;;;;;5053246;28;20037;-75
2021/07/03 08:26:00;;;;;;;22.35;4.97;;;;;;;;;;5051889;28;20476;-76
2021/07/03 08:29:04;;;;;;;61.65;9.02;;;;;;;;;;5052232;28;20037;-75
2021/07/03 08:32:08;;;;;;;14.10;4.85;;;;;;;;;;5053237;28;20033;-76
2021/07/03 08:35:14;;;;;;;18.77;4.53;;;;;;;;;;5052703;28;20032;-75
2021/07/03 08:38:20;;;;;;;17.90;5.07;;;;;;;;;;5051133;28;20554;-77
2021/07/03 08:41:24;;;;;;;16.60;4.55;;;;;;;;;;5052914;28;20091;-75
2021/07/03 08:44:28;;;;;;;15.43;4.68;;;;;;;;;;5051562;28;20477;-76
2021/07/03 08:47:33;;;;;;;14.63;3.85;;;;;;;;;;5052647;28;20044;-77
2021/07/03 08:50:37;;;;;;;20.02;4.43;;;;;;;;;;5052088;28;20045;-77
2021/07/03 08:53:42;;;;;;;12.30;4.65;;;;;;;;;;5051133;28;20041;-77
2021/07/03 08:56:48;;;;;;;37.97;5.55;;;;;;;;;;5055142;28;20053;-78
2021/07/03 08:59:57;;;;;;;24.20;5.30;;;;;;;;;;5052526;28;20469;-77
2021/07/03 09:03:10;;;;;;;39.42;5.93;;;;;;;;;;5052241;28;20041;-77
2021/07/03 09:06:14;;;;;;;24.23;5.20;;;;;;;;;;5053298;28;20025;-78
2021/07/03 09:09:28;;;;;;;18.35;5.90;;;;;;;;;;5051984;28;20045;-77
2021/07/03 09:12:34;;;;;;;12.57;4.57;;;;;;;;;;5051012;28;20033;-79
2021/07/03 09:15:40;;;;;;;32.33;6.75;;;;;;;;;;5051409;28;20041;-78
2021/07/03 09:18:54;;;;;;;53.05;6.78;;;;;;;;;;5053245;28;20049;-77
2021/07/03 09:22:01;;;;;;;17.75;5.43;;;;;;;;;;5052839;28;20037;-79
2021/07/03 09:25:16;;;;;;;27.45;5.40;;;;;;;;;;5051881;28;20044;-78
2021/07/03 09:28:22;;;;;;;22.27;5.15;;;;;;;;;;5052696;28;20057;-78
2021/07/03 09:31:26;;;;;;;13.30;3.83;;;;;;;;;;5051005;28;20037;-78
2021/07/03 09:34:31;;;;;;;12.82;3.90;;;;;;;;;;5051669;28;20044;-76
2021/07/03 09:37:36;;;;;;;45.35;6.60;;;;;;;;;;5050419;28;20484;-77
2021/07/03 09:40:40;;;;;;;22.60;8.75;;;;;;;;;;5051852;28;20480;-84
2021/07/03 09:43:51;;;;;;;20.88;5.47;;;;;;;;;;5052455;28;20033;-79
2021/07/03 09:46:57;;;;;;;15.85;4.57;;;;;;;;;;5052350;28;20073;-80
2021/07/03 09:50:06;;;;;;;87.60;10.43;;;;;;;;;;5053467;28;20040;-77
2021/07/03 09:53:11;;;;;;;88.88;11.82;;;;;;;;;;5054849;28;20404;-79
2021/07/03 09:56:15;;;;;;;63.35;8.68;;;;;;;;;;5053636;28;20040;-77
2021/07/03 09:59:20;;;;;;;28.83;4.90;;;;;;;;;;5052508;28;20041;-79
2021/07/03 10:02:26;;;;;;;21.48;5.15;;;;;;;;;;5053568;28;20044;-77
2021/07/03 10:05:30;;;;;;;17.15;4.20;;;;;;;;;;5053768;28;20033;-79
2021/07/03 10:08:38;;;;;;;12.75;4.38;;;;;;;;;;5052296;28;20381;-80
2021/07/03 10:11:45;;;;;;;30.58;5.57;;;;;;;;;;5053101;28;20033;-78
2021/07/03 10:14:50;;;;;;;21.77;4.93;;;;;;;;;;5053393;28;20040;-77
2021/07/03 10:17:54;;;;;;;47.22;5.70;;;;;;;;;;5052396;28;20393;-77
2021/07/03 10:21:06;;;;;;;43.15;6.65;;;;;;;;;;5053782;28;20045;-77
2021/07/03 10:24:16;;;;;;;21.42;5.38;;;;;;;;;;5053670;28;20037;-78
2021/07/03 10:27:31;;;;;;;16.48;4.55;;;;;;;;;;5055767;28;20041;-79
2021/07/03 10:30:37;;;;;;;37.70;5.88;;;;;;;;;;5056587;28;20698;-79
2021/07/03 10:33:52;;;;;;;14.95;4.50;;;;;;;;;;5057238;28;20484;-79
2021/07/03 10:37:02;;;;;;;26.63;4.47;;;;;;;;;;5054876;28;20045;-80
2021/07/03 10:40:42;;;;;;;19.90;4.40;;;;;;;;;;5056929;28;20041;-78
2021/07/03 10:43:47;;;;;;;11.73;4.38;;;;;;;;;;5058335;28;20033;-79
2021/07/03 10:46:55;;;;;;;14.70;4.32;;;;;;;;;;5056451;28;20041;-78
2021/07/03 10:49:59;;;;;;;14.80;4.13;;;;;;;;;;5058558;28;20040;-80
2021/07/03 10:53:03;;;;;;;19.65;4.60;;;;;;;;;;5058612;28;20033;-78
2021/07/03 10:56:17;;;;;;;13.50;4.07;;;;;;;;;;5060239;28;20041;-79
2021/07/03 10:59:25;;;;;;;15.27;4.10;;;;;;;;;;5057313;28;20037;-78
2021/07/03 11:02:30;;;;;;;11.35;4.43;;;;;;;;;;5044115;28;20373;-79
2021/07/03 11:05:35;;;;;;;10.02;3.78;;;;;;;;;;5057285;28;20045;-79
2021/07/03 11:08:39;;;;;;;15.57;4.18;;;;;;;;;;5060180;28;20377;-78
2021/07/03 11:11:44;;;;;;;24.77;4.88;;;;;;;;;;5062593;28;20033;-80
2021/07/03 11:14:49;;;;;;;9.82;3.58;;;;;;;;;;5061718;28;20032;-79
2021/07/03 11:17:58;;;;;;;14.68;4.15;;;;;;;;;;5059186;28;20036;-79
2021/07/03 11:21:11;;;;;;;16.80;4.20;;;;;;;;;;5059243;28;20037;-78
2021/07/03 11:24:15;;;;;;;16.25;4.35;;;;;;;;;;5060939;28;20288;-77
2021/07/03 11:27:31;;;;;;;13.40;4.07;;;;;;;;;;5058030;28;20045;-78
2021/07/03 11:30:37;;;;;;;9.82;4.05;;;;;;;;;;5060959;28;20037;-81
2021/07/03 11:33:42;;;;;;;16.55;4.15;;;;;;;;;;5056770;28;20036;-80
2021/07/03 11:36:54;;;;;;;13.35;4.00;;;;;;;;;;5056849;28;20045;-79
2021/07/03 11:40:00;;;;;;;15.02;3.92;;;;;;;;;;5055891;28;20045;-78
2021/07/03 11:43:05;;;;;;;16.48;4.13;;;;;;;;;;5057366;28;20041;-79
2021/07/03 11:46:09;;;;;;;12.98;3.53;;;;;;;;;;5055722;28;20044;-79
2021/07/03 11:49:14;;;;;;;19.02;3.78;;;;;;;;;;5058777;28;20377;-80
2021/07/03 11:52:18;;;;;;;8.52;3.80;;;;;;;;;;5054756;28;20037;-78
2021/07/03 11:55:24;;;;;;;14.10;3.80;;;;;;;;;;5054544;28;20041;-79
2021/07/03 11:58:29;;;;;;;9.60;3.53;;;;;;;;;;5055738;28;20381;-78
2021/07/03 12:01:33;;;;;;;12.40;3.97;;;;;;;;;;5054303;28;20037;-79
2021/07/03 12:04:37;;;;;;;11.38;3.20;;;;;;;;;;5056630;28;20033;-78
2021/07/03 12:07:43;;;;;;;17.20;3.92;;;;;;;;;;5055229;28;20048;-78
2021/07/03 12:10:49;;;;;;;13.93;4.32;;;;;;;;;;5053525;28;20477;-80
2021/07/03 12:13:54;;;;;;;15.30;3.95;;;;;;;;;;5054298;28;20139;-80
2021/07/03 12:16:59;;;;;;;10.13;3.05;;;;;;;;;;5054513;28;20040;-78
2021/07/03 12:20:06;;;;;;;12.57;3.60;;;;;;;;;;5041904;28;20481;-80
2021/07/03 12:23:10;;;;;;;18.33;3.97;;;;;;;;;;5054048;28;20040;-79
2021/07/03 12:26:19;;;;;;;26.40;4.20;;;;;;;;;;5055222;28;20029;-79
2021/07/03 12:29:36;;;;;;;12.77;3.67;;;;;;;;;;5055076;28;20056;-77
2021/07/03 12:32:41;;;;;;;9.68;3.35;;;;;;;;;;5054570;28;20488;-78
2021/07/03 12:35:52;;;;;;;15.45;3.50;;;;;;;;;;5053190;28;20041;-77
2021/07/03 12:39:19;;;;;;;13.10;3.95;;;;;;;;;;5054797;28;20602;-78
2021/07/03 12:42:25;;;;;;;21.02;2.88;;;;;;;;;;5054845;28;20041;-79
2021/07/03 12:45:30;;;;;;;16.77;4.07;;;;;;;;;;5054842;28;20048;-78
2021/07/03 12:48:37;;;;;;;28.33;4.47;;;;;;;;;;5054789;28;20049;-77
2021/07/03 12:51:42;;;;;;;16.45;3.55;;;;;;;;;;5055887;28;20496;-77
2021/07/03 12:54:56;;;;;;;23.95;4.10;;;;;;;;;;5053351;28;20036;-78
2021/07/03 12:58:00;;;;;;;13.32;3.60;;;;;;;;;;5054074;28;20037;-79
2021/07/03 13:01:07;;;;;;;18.23;3.38;;;;;;;;;;5054338;28;20036;-78
2021/07/03 13:04:11;;;;;;;10.95;3.03;;;;;;;;;;5053984;28;20029;-79
2021/07/03 13:07:20;;;;;;;13.25;2.53;;;;;;;;;;5054565;28;20041;-78
2021/07/03 13:10:24;;;;;;;9.45;3.55;;;;;;;;;;5054383;28;20041;-78
2021/07/03 13:13:29;;;;;;;12.73;2.97;;;;;;;;;;5053547;28;20029;-78
2021/07/03 13:16:33;;;;;;;12.88;2.78;;;;;;;;;;5053317;28;20492;-79
2021/07/03 13:19:37;;;;;;;10.15;2.78;;;;;;;;;;5053144;28;20369;-76
2021/07/03 13:22:42;;;;;;;14.32;2.97;;;;;;;;;;5053102;28;20033;-78
2021/07/03 13:25:46;;;;;;;11.15;3.30;;;;;;;;;;5054865;28;20037;-78
2021/07/03 13:28:51;;;;;;;17.40;3.17;;;;;;;;;;5052726;28;20045;-77
2021/07/03 13:31:55;;;;;;;20.30;2.75;;;;;;;;;;5052820;28;20037;-79
2021/07/03 13:35:00;;;;;;;9.43;2.47;;;;;;;;;;5052425;28;20037;-79
2021/07/03 13:38:04;;;;;;;22.40;4.88;;;;;;;;;;5053703;28;20037;-78
2021/07/03 13:41:10;;;;;;;16.30;2.50;;;;;;;;;;5053121;28;20408;-77
2021/07/03 13:44:15;;;;;;;24.30;3.63;;;;;;;;;;5054611;28;20064;-78
2021/07/03 13:47:19;;;;;;;10.85;2.53;;;;;;;;;;5052821;28;20103;-79
2021/07/03 13:50:23;;;;;;;16.10;2.95;;;;;;;;;;5053050;28;20400;-77
2021/07/03 13:53:28;;;;;;;11.38;2.38;;;;;;;;;;5053812;28;20145;-77
2021/07/03 13:56:32;;;;;;;12.35;2.45;;;;;;;;;;5055630;28;20041;-78
2021/07/03 13:59:36;;;;;;;12.23;2.55;;;;;;;;;;5053489;28;20029;-78
2021/07/03 14:02:41;;;;;;;8.15;2.08;;;;;;;;;;5054061;28;20048;-78
2021/07/03 14:05:45;;;;;;;12.75;2.72;;;;;;;;;;5053148;28;20040;-79
2021/07/03 14:08:49;;;;;;;10.35;2.28;;;;;;;;;;5053898;28;20056;-78
2021/07/03 14:11:53;;;;;;;23.20;2.72;;;;;;;;;;5051979;28;20495;-78
2021/07/03 14:14:58;;;;;;;16.40;2.55;;;;;;;;;;5054107;28;20052;-76
2021/07/03 14:18:03;;;;;;;9.75;3.35;;;;;;;;;;5052965;28;20041;-78
2021/07/03 14:21:07;;;;;;;15.77;2.47;;;;;;;;;;5054854;28;20036;-77
2021/07/03 14:24:12;;;;;;;12.63;2.17;;;;;;;;;;5057200;28;20036;-80
2021/07/03 14:27:16;;;;;;;10.98;2.60;;;;;;;;;;5057761;28;20033;-79
2021/07/03 14:30:20;;;;;;;9.00;2.20;;;;;;;;;;5044608;28;20052;-79
2021/07/03 14:33:25;;;;;;;11.45;2.30;;;;;;;;;;5057444;28;20040;-78
2021/07/03 14:36:29;;;;;;;8.77;2.28;;;;;;;;;;5056790;28;20037;-78
2021/07/03 14:39:33;;;;;;;8.52;2.08;;;;;;;;;;5055022;28;20033;-76
2021/07/03 14:42:37;;;;;;;10.77;2.50;;;;;;;;;;5057049;28;20481;-78
2021/07/03 14:45:42;;;;;;;18.70;2.72;;;;;;;;;;5056408;28;20416;-78
2021/07/03 14:48:46;;;;;;;11.73;2.70;;;;;;;;;;5056513;28;20057;-78
2021/07/03 14:51:50;;;;;;;10.80;2.70;;;;;;;;;;5056485;28;20029;-78
2021/07/03 14:54:55;;;;;;;14.10;2.83;;;;;;;;;;5055584;28;20037;-78
2021/07/03 14:57:59;;;;;;;11.15;2.75;;;;;;;;;;5056283;28;20029;-78
2021/07/03 15:01:04;;;;;;;13.98;3.10;;;;;;;;;;5055834;28;20051;-78
2021/07/03 15:04:09;;;;;;;14.93;2.78;;;;;;;;;;5055596;28;20373;-80
2021/07/03 15:07:13;;;;;;;13.98;2.55;;;;;;;;;;5055688;28;20037;-78
2021/07/03 15:10:17;;;;;;;12.02;2.50;;;;;;;;;;5057101;28;20481;-78
2021/07/03 15:13:22;;;;;;;10.60;2.97;;;;;;;;;;5059028;28;20049;-79
2021/07/03 15:16:29;;;;;;;12.85;2.70;;;;;;;;;;5056567;28;20374;-79
2021/07/03 15:19:33;;;;;;;12.98;2.88;;;;;;;;;;5054635;28;20041;-78
2021/07/03 15:22:37;;;;;;;15.82;4.05;;;;;;;;;;5055690;28;20047;-79
2021/07/03 15:25:42;;;;;;;9.80;3.05;;;;;;;;;;5056296;28;20041;-78
2021/07/03 15:28:47;;;;;;;12.18;2.97;;;;;;;;;;5055852;28;20511;-81
2021/07/03 15:31:52;;;;;;;14.07;3.47;;;;;;;;;;5057044;28;20041;-79
2021/07/03 15:34:56;;;;;;;14.32;2.97;;;;;;;;;;5055489;28;20181;-80
2021/07/03 15:38:01;;;;;;;9.13;3.25;;;;;;;;;;5056573;28;20040;-79
2021/07/03 15:41:05;;;;;;;15.38;3.47;;;;;;;;;;5057610;28;20033;-79
2021/07/03 15:44:10;;;;;;;12.88;3.85;;;;;;;;;;5056491;28;20045;-80
2021/07/03 15:47:15;;;;;;;13.27;3.08;;;;;;;;;;5056500;28;20041;-78
2021/07/03 15:50:20;;;;;;;13.27;3.28;;;;;;;;;;5057451;28;20507;-77
2021/07/03 15:53:24;;;;;;;12.75;2.17;;;;;;;;;;5056225;28;20044;-80
2021/07/03 15:56:29;;;;;;;14.18;2.72;;;;;;;;;;5057212;28;20044;-79
2021/07/03 15:59:38;;;;;;;11.45;3.33;;;;;;;;;;5055442;28;20448;-77
2021/07/03 16:02:42;;;;;;;7.85;2.40;;;;;;;;;;5056778;28;20521;-79
2021/07/03 16:05:47;;;;;;;8.70;2.47;;;;;;;;;;5056746;28;20029;-79
2021/07/03 16:08:51;;;;;;;9.68;2.55;;;;;;;;;;5056698;28;20045;-78
2021/07/03 16:11:57;;;;;;;10.13;2.40;;;;;;;;;;5056579;28;20505;-80
2021/07/03 16:15:03;;;;;;;6.00;2.00;;;;;;;;;;5058338;28;20037;-83
2021/07/03 16:18:08;;;;;;;7.40;2.67;;;;;;;;;;5056164;28;20029;-77
2021/07/03 16:21:12;;;;;;;9.80;2.30;;;;;;;;;;5056773;28;20041;-79
2021/07/03 16:24:18;;;;;;;9.35;2.53;;;;;;;;;;5056582;28;20473;-79
2021/07/03 16:27:22;;;;;;;9.35;2.30;;;;;;;;;;5058259;28;20492;-80
2021/07/03 16:30:27;;;;;;;8.07;2.53;;;;;;;;;;5055777;28;20380;-80
2021/07/03 16:33:31;;;;;;;11.95;2.80;;;;;;;;;;5055744;28;20041;-78
2021/07/03 16:36:36;;;;;;;18.20;2.58;;;;;;;;;;5059269;28;20033;-78
2021/07/03 16:39:41;;;;;;;14.48;2.70;;;;;;;;;;5055831;28;20046;-79
2021/07/03 16:42:45;;;;;;;11.38;2.55;;;;;;;;;;5056879;28;20033;-78
2021/07/03 16:45:49;;;;;;;8.73;2.15;;;;;;;;;;5043626;28;20053;-79
2021/07/03 16:48:54;;;;;;;10.05;2.00;;;;;;;;;;5057248;28;20591;-79
2021/07/03 16:51:59;;;;;;;9.38;2.30;;;;;;;;;;5053970;28;20037;-79
2021/07/03 16:55:04;;;;;;;12.00;2.47;;;;;;;;;;5054194;28;20465;-79
2021/07/03 16:58:08;;;;;;;16.10;4.60;;;;;;;;;;5053886;28;20045;-78
2021/07/03 17:01:13;;;;;;;11.90;2.50;;;;;;;;;;5053403;28;20041;-79
2021/07/03 17:04:18;;;;;;;11.27;2.75;;;;;;;;;;5054879;28;20052;-79
2021/07/03 17:07:22;;;;;;;9.52;2.60;;;;;;;;;;5053695;28;20047;-79
2021/07/03 17:10:27;;;;;;;10.48;2.58;;;;;;;;;;5053190;28;20033;-79
2021/07/03 17:13:31;;;;;;;19.55;2.80;;;;;;;;;;5052461;28;20037;-79
2021/07/03 17:16:35;;;;;;;12.23;2.92;;;;;;;;;;5052590;28;20037;-80
2021/07/03 17:19:40;;;;;;;12.27;2.67;;;;;;;;;;5052023;28;20342;-79
2021/07/03 17:22:44;;;;;;;11.07;2.50;;;;;;;;;;5052575;28;20048;-80
2021/07/03 17:25:49;;;;;;;12.32;2.60;;;;;;;;;;5052906;28;20036;-78
2021/07/03 17:28:54;;;;;;;12.60;2.60;;;;;;;;;;5052490;28;20057;-77
2021/07/03 17:31:58;;;;;;;8.65;2.30;;;;;;;;;;5053811;28;20029;-78
2021/07/03 17:35:03;;;;;;;10.25;3.03;;;;;;;;;;5055396;28;20037;-79
2021/07/03 17:38:08;;;;;;;12.68;2.47;;;;;;;;;;5056558;28;20145;-79
2021/07/03 17:41:13;;;;;;;16.60;2.75;;;;;;;;;;5056419;28;20033;-79
2021/07/03 17:44:17;;;;;;;13.15;2.53;;;;;;;;;;5053381;28;20431;-78
2021/07/03 17:47:21;;;;;;;14.68;2.30;;;;;;;;;;5054540;28;20036;-77
2021/07/03 17:50:28;;;;;;;12.40;2.80;;;;;;;;;;5054357;28;20436;-78
2021/07/03 17:53:32;;;;;;;15.75;2.53;;;;;;;;;;5054915;28;20064;-78
2021/07/03 17:56:39;;;;;;;13.65;2.30;;;;;;;;;;5055769;28;20041;-79
2021/07/03 17:59:44;;;;;;;12.40;2.70;;;;;;;;;;5054502;28;20044;-77
2021/07/03 18:02:48;;;;;;;12.93;3.50;;;;;;;;;;5042371;28;20064;-77
2021/07/03 18:05:53;;;;;;;20.55;3.38;;;;;;;;;;5054104;28;20037;-78
2021/07/03 18:08:57;;;;;;;14.02;2.95;;;;;;;;;;5053022;28;20041;-78
2021/07/03 18:12:01;;;;;;;20.85;2.90;;;;;;;;;;5053166;28;20506;-78
2021/07/03 18:15:06;;;;;;;17.13;3.47;;;;;;;;;;5054143;28;20048;-86
2021/07/03 18:18:12;;;;;;;20.95;4.32;;;;;;;;;;5052070;28;20484;-79
2021/07/03 18:21:16;;;;;;;19.38;3.33;;;;;;;;;;5053125;28;20493;-80